createdAt,value
2023-04-14T00:01:39.760Z,22.16
2023-04-14T00:04:12.854Z,22.14
2023-04-14T00:06:41.826Z,22.10
2023-04-14T00:09:12.161Z,22.07
2023-04-14T00:11:42.400Z,22.09
2023-04-14T00:14:12.890Z,22.13
2023-04-14T00:16:40.794Z,22.06
2023-04-14T00:19:12.974Z,22.07
2023-04-14T00:21:43.830Z,22.07
2023-04-14T00:24:13.886Z,22.10
2023-04-14T00:26:43.565Z,22.08
2023-04-14T00:29:13.155Z,22.08
2023-04-14T00:31:50.173Z,22.06
2023-04-14T00:34:22.520Z,22.05
2023-04-14T00:36:51.840Z,22.05
2023-04-14T00:39:21.822Z,22.06
2023-04-14T00:41:53.108Z,22.01
2023-04-14T00:44:20.606Z,22.03
2023-04-14T00:46:50.819Z,22.06
2023-04-14T00:49:20.750Z,22.04
2023-04-14T00:51:48.253Z,22.02
2023-04-14T00:54:18.487Z,22.01
2023-04-14T00:56:57.521Z,22.02
2023-04-14T00:59:29.847Z,22.01
2023-04-14T01:02:03.994Z,22.02
2023-04-14T01:04:49.131Z,21.96
2023-04-14T01:07:21.694Z,22.01
2023-04-14T01:09:50.304Z,22.01
2023-04-14T01:12:31.408Z,22.02
2023-04-14T01:15:10.918Z,22.08
2023-04-14T01:17:50.064Z,22.08
2023-04-14T01:20:29.312Z,22.10
2023-04-14T01:23:09.141Z,22.15
2023-04-14T01:25:45.459Z,22.17
2023-04-14T01:28:42.940Z,22.14
2023-04-14T01:31:26.003Z,22.18
2023-04-14T01:34:02.910Z,22.14
2023-04-14T01:36:46.368Z,22.19
2023-04-14T01:39:25.272Z,22.20
2023-04-14T01:41:58.335Z,22.17
2023-04-14T01:44:36.562Z,22.23
2023-04-14T01:47:08.510Z,22.29
2023-04-14T01:49:39.663Z,22.26
2023-04-14T01:52:11.638Z,22.26
2023-04-14T01:54:43.697Z,22.27
2023-04-14T01:57:19.323Z,22.26
2023-04-14T01:59:57.600Z,22.27
2023-04-14T02:02:31.727Z,22.29
2023-04-14T02:05:11.351Z,22.33
2023-04-14T02:07:45.881Z,22.31
2023-04-14T02:10:21.748Z,22.30
2023-04-14T02:12:55.311Z,22.36
2023-04-14T02:15:26.244Z,22.36
2023-04-14T02:18:09.126Z,22.32
2023-04-14T02:20:45.132Z,22.29
2023-04-14T02:23:15.496Z,22.31
2023-04-14T02:26:23.850Z,22.30
2023-04-14T02:29:13.609Z,22.34
2023-04-14T02:31:49.866Z,22.32
2023-04-14T02:34:26.505Z,22.32
2023-04-14T02:37:02.929Z,22.30
2023-04-14T02:39:43.485Z,22.28
2023-04-14T02:42:27.031Z,22.21
2023-04-14T02:45:12.089Z,22.22
2023-04-14T02:47:47.145Z,22.17
2023-04-14T02:50:16.106Z,22.20
2023-04-14T02:52:57.501Z,22.14
2023-04-14T02:55:31.715Z,22.10
2023-04-14T02:58:00.419Z,22.06
2023-04-14T03:00:33.026Z,22.05
2023-04-14T03:03:05.695Z,22.01
2023-04-14T03:05:35.002Z,21.98
2023-04-14T03:08:11.029Z,21.97
2023-04-14T03:10:47.202Z,21.94
2023-04-14T03:13:22.000Z,21.91
2023-04-14T03:15:51.970Z,21.91
2023-04-14T03:18:21.681Z,21.83
2023-04-14T03:20:51.840Z,21.82
2023-04-14T03:23:21.983Z,21.79
2023-04-14T03:25:59.495Z,21.79
2023-04-14T03:28:31.097Z,21.76
2023-04-14T03:31:05.481Z,21.75
2023-04-14T03:33:47.013Z,21.74
2023-04-14T03:36:21.037Z,21.75
2023-04-14T03:38:49.939Z,21.76
2023-04-14T03:41:23.984Z,21.74
2023-04-14T03:43:54.830Z,21.74
2023-04-14T03:46:26.359Z,21.79
2023-04-14T03:48:56.957Z,21.75
2023-04-14T03:51:28.595Z,21.76
2023-04-14T03:53:58.352Z,21.71
2023-04-14T03:56:38.249Z,21.78
2023-04-14T03:59:10.142Z,21.80
2023-04-14T04:01:45.107Z,21.81
2023-04-14T04:04:15.875Z,21.79
2023-04-14T04:06:46.608Z,21.72
2023-04-14T04:09:15.889Z,21.73
2023-04-14T04:11:50.473Z,21.73
2023-04-14T04:14:22.805Z,21.72
2023-04-14T04:16:55.174Z,21.70
2023-04-14T04:19:27.082Z,21.69
2023-04-14T04:22:00.022Z,21.71
2023-04-14T04:24:34.311Z,21.71
2023-04-14T04:27:02.103Z,21.73
2023-04-14T04:29:33.949Z,21.71
2023-04-14T04:32:11.141Z,21.72
2023-04-14T04:34:39.425Z,21.72
2023-04-14T04:37:13.364Z,21.73
2023-04-14T04:39:43.129Z,21.67
2023-04-14T04:42:13.165Z,21.69
2023-04-14T04:44:46.177Z,21.67
2023-04-14T04:47:16.129Z,21.73
2023-04-14T04:49:54.083Z,21.72
2023-04-14T04:52:25.755Z,21.69
2023-04-14T04:55:00.684Z,21.70
2023-04-14T04:57:35.113Z,21.71
2023-04-14T05:00:05.427Z,21.71
2023-04-14T05:02:37.579Z,21.75
2023-04-14T05:05:10.800Z,21.73
2023-04-14T05:07:46.901Z,21.74
2023-04-14T05:10:14.303Z,21.69
2023-04-14T05:12:46.544Z,21.74
2023-04-14T05:15:14.121Z,21.74
2023-04-14T05:20:12.130Z,21.77
2023-04-14T05:22:44.370Z,21.76
2023-04-14T05:25:14.416Z,21.81
2023-04-14T05:27:46.521Z,21.79
2023-04-14T05:30:14.744Z,21.80
2023-04-14T05:32:48.657Z,21.84
2023-04-14T05:35:21.926Z,21.84
2023-04-14T05:37:50.351Z,21.82
2023-04-14T05:40:18.276Z,21.81
2023-04-14T05:42:49.326Z,21.80
2023-04-14T05:45:19.662Z,21.77
2023-04-14T05:47:50.326Z,21.81
2023-04-14T05:50:17.853Z,21.89
2023-04-14T05:52:49.001Z,21.89
2023-04-14T05:55:23.620Z,21.92
2023-04-14T05:57:53.308Z,21.95
2023-04-14T06:00:25.224Z,22.04
2023-04-14T06:02:56.355Z,22.00
2023-04-14T06:05:25.316Z,22.03
2023-04-14T06:07:56.146Z,22.08
2023-04-14T06:10:32.227Z,22.14
2023-04-14T06:13:02.952Z,22.27
2023-04-14T06:15:32.800Z,22.33
2023-04-14T06:18:03.483Z,22.33
2023-04-14T06:20:34.350Z,22.32
2023-04-14T06:23:05.736Z,22.38
2023-04-14T06:25:36.782Z,22.54
2023-04-14T06:28:08.927Z,22.63
2023-04-14T06:30:36.725Z,22.74
2023-04-14T06:33:04.924Z,22.88
2023-04-14T06:35:37.816Z,22.90
2023-04-14T06:38:16.479Z,22.98
2023-04-14T06:40:51.301Z,23.05
2023-04-14T06:43:29.013Z,23.12
2023-04-14T06:46:05.600Z,23.34
2023-04-14T06:48:41.353Z,23.40
2023-04-14T06:51:14.470Z,23.30
2023-04-14T06:53:42.094Z,23.09
2023-04-14T06:56:15.578Z,23.18
2023-04-14T06:58:48.935Z,23.37
2023-04-14T07:01:22.680Z,23.32
2023-04-14T07:03:50.720Z,23.31
2023-04-14T07:06:20.934Z,23.33
2023-04-14T07:08:54.516Z,23.41
2023-04-14T07:11:31.851Z,23.61
2023-04-14T07:14:02.382Z,23.57
2023-04-14T07:16:32.202Z,23.61
2023-04-14T07:19:05.633Z,23.44
2023-04-14T07:21:33.487Z,23.47
2023-04-14T07:24:05.523Z,23.62
2023-04-14T07:26:38.414Z,23.51
2023-04-14T07:29:13.696Z,23.52
2023-04-14T07:31:45.250Z,23.53
2023-04-14T07:34:17.462Z,23.63
2023-04-14T07:36:51.318Z,23.75
2023-04-14T07:39:23.846Z,23.73
2023-04-14T07:41:57.931Z,23.84
2023-04-14T07:44:30.493Z,24.16
2023-04-14T07:47:01.753Z,24.27
2023-04-14T07:49:32.938Z,24.18
2023-04-14T07:52:06.125Z,24.04
2023-04-14T07:54:39.142Z,24.17
2023-04-14T07:57:17.819Z,24.28
2023-04-14T07:59:56.379Z,24.21
2023-04-14T08:02:30.225Z,23.99
2023-04-14T08:04:58.375Z,23.98
2023-04-14T08:07:30.573Z,23.95
2023-04-14T08:10:05.059Z,23.82
2023-04-14T08:12:41.624Z,23.92
2023-04-14T08:15:20.319Z,23.91
2023-04-14T08:17:52.639Z,23.81
2023-04-14T08:20:24.097Z,23.91
2023-04-14T08:23:03.332Z,24.06
2023-04-14T08:25:41.238Z,23.97
2023-04-14T08:28:18.733Z,23.93
2023-04-14T08:30:54.535Z,23.92
2023-04-14T08:33:29.004Z,23.81
2023-04-14T08:36:12.478Z,23.85
2023-04-14T08:38:55.663Z,23.78
2023-04-14T08:41:30.291Z,23.75
2023-04-14T08:44:07.774Z,23.87
2023-04-14T08:46:45.447Z,23.87
2023-04-14T08:49:33.531Z,23.84
2023-04-14T08:52:05.608Z,24.01
2023-04-14T08:54:49.341Z,23.98
2023-04-14T08:57:29.278Z,23.93
2023-04-14T09:00:05.334Z,24.13
2023-04-14T09:02:34.018Z,23.97
2023-04-14T09:05:12.402Z,23.96
2023-04-14T09:07:46.055Z,23.84
2023-04-14T09:10:30.326Z,23.79
2023-04-14T09:13:04.723Z,23.77
2023-04-14T09:15:38.744Z,23.71
2023-04-14T09:18:14.650Z,23.76
2023-04-14T09:21:33.010Z,23.77
2023-04-14T09:23:52.905Z,23.83
2023-04-14T09:26:29.714Z,23.85
2023-04-14T09:29:03.470Z,23.78
2023-04-14T09:31:45.256Z,23.84
2023-04-14T09:34:25.632Z,23.83
2023-04-14T09:37:11.610Z,23.85
2023-04-14T09:39:58.939Z,23.85
2023-04-14T09:42:43.120Z,23.84
2023-04-14T09:45:17.647Z,23.83
2023-04-14T09:47:52.835Z,23.74
2023-04-14T09:50:29.662Z,23.72
2023-04-14T09:53:12.339Z,23.86
2023-04-14T09:55:48.000Z,23.90
2023-04-14T09:58:27.279Z,23.89
2023-04-14T10:01:05.769Z,23.95
2023-04-14T10:03:46.027Z,24.16
2023-04-14T10:06:25.075Z,24.30
2023-04-14T10:09:07.398Z,24.46
2023-04-14T10:11:50.782Z,24.49
2023-04-14T10:14:26.898Z,24.50
2023-04-14T10:16:57.890Z,24.51
2023-04-14T10:19:34.432Z,24.47
2023-04-14T10:22:03.037Z,24.52
2023-04-14T10:24:32.082Z,24.55
2023-04-14T10:27:05.764Z,24.56
2023-04-14T10:29:42.397Z,24.62
2023-04-14T10:32:18.824Z,24.64
2023-04-14T10:35:02.206Z,24.57
2023-04-14T10:37:33.481Z,24.59
2023-04-14T10:40:07.538Z,24.64
2023-04-14T10:42:53.758Z,24.61
2023-04-14T10:45:25.002Z,24.88
2023-04-14T10:47:58.520Z,24.92
2023-04-14T10:50:32.124Z,24.96
2023-04-14T10:53:07.610Z,25.14
2023-04-14T10:55:52.160Z,25.08
2023-04-14T10:58:32.747Z,24.96
2023-04-14T11:01:32.845Z,24.94
2023-04-14T11:04:23.919Z,24.87
2023-04-14T11:07:01.908Z,24.72
2023-04-14T11:09:42.791Z,24.64
2023-04-14T11:12:32.927Z,24.56
2023-04-14T11:15:08.490Z,24.47
2023-04-14T11:17:41.535Z,24.34
2023-04-14T11:20:19.183Z,24.35
2023-04-14T11:23:00.239Z,24.23
2023-04-14T11:25:34.084Z,24.19
2023-04-14T11:28:06.102Z,24.33
2023-04-14T11:30:44.638Z,24.23
2023-04-14T11:33:20.290Z,24.23
2023-04-14T11:35:53.401Z,24.30
2023-04-14T11:38:24.433Z,24.27
2023-04-14T11:40:56.403Z,24.30
2023-04-14T11:43:25.102Z,24.35
2023-04-14T11:45:56.134Z,24.46
2023-04-14T11:48:30.790Z,24.48
2023-04-14T11:51:06.204Z,24.48
2023-04-14T11:53:43.333Z,24.66
2023-04-14T11:56:14.998Z,24.63
2023-04-14T11:58:49.790Z,24.66
2023-04-14T12:01:29.145Z,24.88
2023-04-14T12:04:00.342Z,24.76
2023-04-14T12:06:41.270Z,25.01
2023-04-14T12:09:17.579Z,25.00
2023-04-14T12:11:54.064Z,25.16
2023-04-14T12:14:28.855Z,24.95
2023-04-14T12:17:02.210Z,25.24
2023-04-14T12:19:32.846Z,25.34
2023-04-14T12:22:06.807Z,25.32
2023-04-14T12:24:45.281Z,25.16
2023-04-14T12:27:19.916Z,24.96
2023-04-14T12:29:50.471Z,25.01
2023-04-14T12:32:19.877Z,25.12
2023-04-14T12:35:04.024Z,24.89
2023-04-14T12:37:38.762Z,24.78
2023-04-14T12:40:12.464Z,24.78
2023-04-14T12:42:47.310Z,24.90
2023-04-14T12:45:23.863Z,25.02
2023-04-14T12:48:00.914Z,24.86
2023-04-14T12:50:30.480Z,24.98
2023-04-14T12:53:01.637Z,24.91
2023-04-14T12:55:31.250Z,24.90
2023-04-14T12:58:07.053Z,24.86
2023-04-14T13:00:40.237Z,24.81
2023-04-14T13:03:09.318Z,24.82
2023-04-14T13:05:48.595Z,24.78
2023-04-14T13:08:27.174Z,24.79
2023-04-14T13:11:00.787Z,24.86
2023-04-14T13:13:34.766Z,24.90
2023-04-14T13:16:14.550Z,24.91
2023-04-14T13:18:44.891Z,24.91
2023-04-14T13:21:18.244Z,24.87
2023-04-14T13:23:46.161Z,24.90
2023-04-14T13:26:14.386Z,24.90
2023-04-14T13:28:45.098Z,24.88
2023-04-14T13:31:17.530Z,24.86
2023-04-14T13:33:53.566Z,24.89
2023-04-14T13:36:23.152Z,24.76
2023-04-14T13:38:53.243Z,24.89
2023-04-14T13:41:30.349Z,24.92
2023-04-14T13:44:07.304Z,24.97
2023-04-14T13:46:46.133Z,25.00
2023-04-14T13:49:17.047Z,25.04
2023-04-14T13:51:47.753Z,25.04
2023-04-14T13:54:16.385Z,25.01
2023-04-14T13:56:50.062Z,24.83
2023-04-14T13:59:21.570Z,24.87
2023-04-14T14:01:52.329Z,24.85
2023-04-14T14:04:20.580Z,24.85
2023-04-14T14:06:55.045Z,24.82
2023-04-14T14:09:25.068Z,24.74
2023-04-14T14:11:52.919Z,24.71
2023-04-14T14:14:35.031Z,24.75
2023-04-14T14:17:05.868Z,24.66
2023-04-14T14:19:36.528Z,24.63
2023-04-14T14:22:04.673Z,24.63
2023-04-14T14:24:38.029Z,24.59
2023-04-14T14:27:12.559Z,24.64
2023-04-14T14:29:42.697Z,24.60
2023-04-14T14:32:19.072Z,24.53
2023-04-14T14:34:59.728Z,24.54
2023-04-14T14:37:35.906Z,24.44
2023-04-14T14:40:12.370Z,24.38
2023-04-14T14:42:45.073Z,24.36
2023-04-14T14:45:30.561Z,24.43
2023-04-14T14:48:09.684Z,24.42
2023-04-14T14:50:45.904Z,24.41
2023-04-14T14:53:20.066Z,24.43
2023-04-14T14:55:54.382Z,24.41
2023-04-14T14:58:27.993Z,24.41
2023-04-14T15:01:07.470Z,24.43
2023-04-14T15:03:46.062Z,24.44
2023-04-14T15:06:22.492Z,24.44
2023-04-14T15:08:56.066Z,24.40
2023-04-14T15:11:34.873Z,24.42
2023-04-14T15:14:09.506Z,24.48
2023-04-14T15:16:45.487Z,24.44
2023-04-14T15:19:31.191Z,24.43
2023-04-14T15:22:05.021Z,24.52
2023-04-14T15:24:38.429Z,24.46
2023-04-14T15:27:13.919Z,24.50
2023-04-14T15:29:48.134Z,24.52
2023-04-14T15:32:25.391Z,24.49
2023-04-14T15:34:54.853Z,24.40
2023-04-14T15:37:29.271Z,24.43
2023-04-14T15:39:58.488Z,24.46
2023-04-14T15:42:34.519Z,24.50
2023-04-14T15:45:07.299Z,24.51
2023-04-14T15:47:41.198Z,24.62
2023-04-14T15:50:19.074Z,24.52
2023-04-14T15:52:52.530Z,24.42
2023-04-14T15:55:39.934Z,24.51
2023-04-14T15:58:19.621Z,24.50
2023-04-14T16:00:59.639Z,24.53
2023-04-14T16:03:38.679Z,24.61
2023-04-14T16:06:25.054Z,24.57
2023-04-14T16:09:06.580Z,24.57
2023-04-14T16:11:38.242Z,24.59
2023-04-14T16:14:16.757Z,24.53
2023-04-14T16:16:56.722Z,24.52
2023-04-14T16:19:35.890Z,24.50
2023-04-14T16:22:15.248Z,24.48
2023-04-14T16:24:53.195Z,24.41
2023-04-14T16:27:30.280Z,24.41
2023-04-14T16:30:15.121Z,24.39
2023-04-14T16:32:50.300Z,24.38
2023-04-14T16:35:25.377Z,24.40
2023-04-14T16:38:08.404Z,24.38
2023-04-14T16:40:42.845Z,24.42
2023-04-14T16:43:10.854Z,24.41
2023-04-14T16:45:41.000Z,24.47
2023-04-14T16:48:08.428Z,24.41
2023-04-14T16:50:37.113Z,24.35
2023-04-14T16:53:07.690Z,24.27
2023-04-14T16:55:38.044Z,24.28
2023-04-14T16:58:09.920Z,24.30
2023-04-14T17:00:40.635Z,24.32
2023-04-14T17:03:12.998Z,24.28
2023-04-14T17:05:40.862Z,24.23
2023-04-14T17:08:12.206Z,24.21
2023-04-14T17:10:45.985Z,24.23
2023-04-14T17:13:17.250Z,24.21
2023-04-14T17:16:05.686Z,24.18
2023-04-14T17:18:51.866Z,24.21
2023-04-14T17:21:25.602Z,24.14
2023-04-14T17:24:06.691Z,24.17
2023-04-14T17:26:43.036Z,24.18
2023-04-14T17:29:16.149Z,24.16
2023-04-14T17:31:55.806Z,24.19
2023-04-14T17:34:27.987Z,24.15
2023-04-14T17:37:06.893Z,24.09
2023-04-14T17:39:39.951Z,24.10
2023-04-14T17:42:19.100Z,24.15
2023-04-14T17:44:55.037Z,24.07
2023-04-14T17:47:38.045Z,24.07
2023-04-14T17:50:13.237Z,24.05
2023-04-14T17:52:52.477Z,23.98
2023-04-14T17:55:34.092Z,24.03
2023-04-14T17:58:12.632Z,24.04
2023-04-14T18:00:54.368Z,24.00
2023-04-14T18:03:29.422Z,24.04
2023-04-14T18:06:03.482Z,23.97
2023-04-14T18:08:34.179Z,23.97
2023-04-14T18:11:07.638Z,23.97
2023-04-14T18:13:40.723Z,23.94
2023-04-14T18:16:13.500Z,23.93
2023-04-14T18:18:51.620Z,23.92
2023-04-14T18:21:22.945Z,23.96
2023-04-14T18:26:43.453Z,23.89
2023-04-14T18:29:21.773Z,23.93
2023-04-14T18:31:58.405Z,23.86
2023-04-14T18:34:33.667Z,23.92
2023-04-14T18:37:07.529Z,23.93
2023-04-14T18:39:46.483Z,23.96
2023-04-14T18:42:19.213Z,23.86
2023-04-14T18:44:50.618Z,23.89
2023-04-14T18:47:24.266Z,23.82
2023-04-14T18:49:54.524Z,23.86
2023-04-14T18:52:28.230Z,23.81
2023-04-14T18:55:03.448Z,23.86
2023-04-14T18:57:34.353Z,23.84
2023-04-14T19:00:14.193Z,23.87
2023-04-14T19:02:55.663Z,23.82
2023-04-14T19:05:30.717Z,23.84
2023-04-14T19:08:11.908Z,23.79
2023-04-14T19:10:51.695Z,23.78
2023-04-14T19:13:30.279Z,23.79
2023-04-14T19:16:12.576Z,23.83
2023-04-14T19:18:42.526Z,23.80
2023-04-14T19:21:15.669Z,23.81
2023-04-14T19:23:51.290Z,23.78
2023-04-14T19:26:30.672Z,23.72
2023-04-14T19:29:10.429Z,23.69
2023-04-14T19:31:49.568Z,23.75
2023-04-14T19:34:31.337Z,23.69
2023-04-14T19:37:04.088Z,23.60
2023-04-14T19:39:41.342Z,23.60
2023-04-14T19:42:18.677Z,23.68
2023-04-14T19:44:52.377Z,23.61
2023-04-14T19:47:31.944Z,23.63
2023-04-14T19:50:16.600Z,23.62
2023-04-14T19:52:52.344Z,23.59
2023-04-14T19:55:40.273Z,23.52
2023-04-14T19:58:13.486Z,23.54
2023-04-14T20:00:51.445Z,23.55
2023-04-14T20:03:29.618Z,23.53
2023-04-14T20:06:04.345Z,23.51
2023-04-14T20:08:40.817Z,23.49
2023-04-14T20:11:15.944Z,23.43
2023-04-14T20:13:54.817Z,23.39
2023-04-14T20:16:27.852Z,23.41
2023-04-14T20:19:04.572Z,23.40
2023-04-14T20:21:37.619Z,23.43
2023-04-14T20:24:14.307Z,23.43
2023-04-14T20:26:47.301Z,23.38
2023-04-14T20:29:25.090Z,23.38
2023-04-14T20:32:04.417Z,23.38
2023-04-14T20:34:43.556Z,23.39
2023-04-14T20:37:19.541Z,23.42
2023-04-14T20:39:56.706Z,23.40
2023-04-14T20:42:45.553Z,23.38
2023-04-14T20:45:23.837Z,23.37
2023-04-14T20:48:02.482Z,23.37
2023-04-14T20:50:38.260Z,23.39
2023-04-14T20:53:15.104Z,23.38
2023-04-14T20:55:48.948Z,23.35
2023-04-14T20:58:24.756Z,23.33
2023-04-14T21:00:59.940Z,23.33
2023-04-14T21:03:34.301Z,23.34
2023-04-14T21:06:16.139Z,23.36
2023-04-14T21:08:52.552Z,23.36
2023-04-14T21:11:30.980Z,23.32
2023-04-14T21:15:40.000Z,23.35
2023-04-14T21:16:57.969Z,23.29
2023-04-14T21:19:37.685Z,23.35
2023-04-14T21:22:13.819Z,23.31
2023-04-14T21:24:49.685Z,23.33
2023-04-14T21:27:21.952Z,23.34
2023-04-14T21:30:01.850Z,23.31
2023-04-14T21:32:43.503Z,23.29
2023-04-14T21:35:17.081Z,23.27
2023-04-14T21:37:54.658Z,23.30
2023-04-14T21:40:31.001Z,23.28
2023-04-14T21:43:09.799Z,23.26
2023-04-14T21:45:43.713Z,23.29
2023-04-14T21:48:14.677Z,23.26
2023-04-14T21:50:47.861Z,23.25
2023-04-14T21:53:24.005Z,23.24
2023-04-14T21:56:09.959Z,23.24
2023-04-14T21:58:42.059Z,23.21
2023-04-14T22:01:26.563Z,23.18
2023-04-14T22:04:05.642Z,23.16
2023-04-14T22:06:41.537Z,23.16
2023-04-14T22:09:18.604Z,23.14
2023-04-14T22:11:57.674Z,23.15
2023-04-14T22:14:34.247Z,23.12
2023-04-14T22:17:13.141Z,23.14
2023-04-14T22:19:46.277Z,23.12
2023-04-14T22:22:25.336Z,23.15
2023-04-14T22:25:00.387Z,23.14
2023-04-14T22:27:38.814Z,23.10
2023-04-14T22:30:14.892Z,23.09
2023-04-14T22:32:47.729Z,23.09
2023-04-14T22:35:30.286Z,23.09
2023-04-14T22:38:08.322Z,23.08
2023-04-14T22:40:52.320Z,23.07
2023-04-14T22:43:26.625Z,23.12
2023-04-14T22:46:08.346Z,23.10
2023-04-14T22:48:41.838Z,23.06
2023-04-14T22:51:18.257Z,23.04
2023-04-14T22:53:52.879Z,23.07
2023-04-14T22:56:29.086Z,23.01
2023-04-14T22:59:04.860Z,23.02
2023-04-14T23:01:46.965Z,23.03
2023-04-14T23:04:20.931Z,23.03
2023-04-14T23:06:59.530Z,23.02
2023-04-14T23:09:33.601Z,23.03
2023-04-14T23:12:09.151Z,23.02
2023-04-14T23:14:36.971Z,23.00
2023-04-14T23:17:19.668Z,22.98
2023-04-14T23:19:53.095Z,23.00
2023-04-14T23:22:25.945Z,23.01
2023-04-14T23:25:02.206Z,23.02
2023-04-14T23:27:30.678Z,22.99
2023-04-14T23:30:08.708Z,22.99
2023-04-14T23:32:44.673Z,22.99
2023-04-14T23:35:20.879Z,22.96
2023-04-14T23:37:58.849Z,22.97
2023-04-14T23:40:33.485Z,22.95
2023-04-14T23:43:09.884Z,22.91
2023-04-14T23:45:53.110Z,22.95
2023-04-14T23:48:26.989Z,22.95
2023-04-14T23:51:15.780Z,22.93
2023-04-14T23:54:01.835Z,22.89
2023-04-14T23:56:41.469Z,22.93
2023-04-14T23:59:20.300Z,22.90
